sensor_id;sensor_type;location;lat;lon;timestamp;pressure;altitude;pressure_sealevel;temperature;humidity
79198;BME280;68628;48.714;9.472;2023-06-04T00:00:47;98037.50;;;14.33;60.95
79198;BME280;68628;48.714;9.472;2023-06-04T00:03:13;98030.97;;;14.29;61.26
79198;BME280;68628;48.714;9.472;2023-06-04T00:05:39;98040.13;;;14.27;61.29
79198;BME280;68628;48.714;9.472;2023-06-04T00:08:04;98037.91;;;14.24;61.13
79198;BME280;68628;48.714;9.472;2023-06-04T00:10:30;98041.56;;;14.16;60.91
79198;BME280;68628;48.714;9.472;2023-06-04T00:12:57;98035.03;;;14.19;61.57
79198;BME280;68628;48.714;9.472;2023-06-04T00:15:23;98036.47;;;14.21;60.75
79198;BME280;68628;48.714;9.472;2023-06-04T00:17:48;98038.91;;;14.23;61.17
79198;BME280;68628;48.714;9.472;2023-06-04T00:20:14;98036.84;;;14.18;60.77
79198;BME280;68628;48.714;9.472;2023-06-04T00:22:40;98036.25;;;14.16;60.78
79198;BME280;68628;48.714;9.472;2023-06-04T00:25:08;98038.28;;;14.14;60.73
79198;BME280;68628;48.714;9.472;2023-06-04T00:27:35;98040.94;;;14.14;60.34
79198;BME280;68628;48.714;9.472;2023-06-04T00:30:01;98038.91;;;14.16;60.08
79198;BME280;68628;48.714;9.472;2023-06-04T00:32:27;98034.41;;;14.16;59.42
79198;BME280;68628;48.714;9.472;2023-06-04T00:34:54;98037.47;;;14.13;59.77
79198;BME280;68628;48.714;9.472;2023-06-04T00:37:24;98040.34;;;14.05;61.56
79198;BME280;68628;48.714;9.472;2023-06-04T00:39:50;98035.03;;;14.05;60.98
79198;BME280;68628;48.714;9.472;2023-06-04T00:42:17;98035.41;;;13.95;59.85
79198;BME280;68628;48.714;9.472;2023-06-04T00:44:43;98038.25;;;13.87;59.62
79198;BME280;68628;48.714;9.472;2023-06-04T00:47:12;98039.88;;;13.88;60.21
79198;BME280;68628;48.714;9.472;2023-06-04T00:49:38;98041.91;;;13.86;60.64
79198;BME280;68628;48.714;9.472;2023-06-04T00:52:04;98054.34;;;13.92;60.46
79198;BME280;68628;48.714;9.472;2023-06-04T00:54:31;98049.06;;;13.92;59.36
79198;BME280;68628;48.714;9.472;2023-06-04T00:56:59;98046.63;;;13.91;60.55
79198;BME280;68628;48.714;9.472;2023-06-04T00:59:24;98048.22;;;13.85;61.58
79198;BME280;68628;48.714;9.472;2023-06-04T01:05:00;98049.03;;;13.79;62.66
79198;BME280;68628;48.714;9.472;2023-06-04T01:07:36;98058.41;;;13.81;62.51
79198;BME280;68628;48.714;9.472;2023-06-04T01:10:03;98064.31;;;13.83;61.77
79198;BME280;68628;48.714;9.472;2023-06-04T01:12:29;98062.06;;;13.80;61.55
79198;BME280;68628;48.714;9.472;2023-06-04T01:14:54;98057.78;;;13.79;60.92
79198;BME280;68628;48.714;9.472;2023-06-04T01:17:29;98063.28;;;13.78;61.10
79198;BME280;68628;48.714;9.472;2023-06-04T01:20:24;98057.16;;;13.71;60.57
79198;BME280;68628;48.714;9.472;2023-06-04T01:23:50;98059.59;;;13.65;61.43
79198;BME280;68628;48.714;9.472;2023-06-04T01:26:10;98058.56;;;13.66;61.29
79198;BME280;68628;48.714;9.472;2023-06-04T01:28:37;98059.78;;;13.64;60.57
79198;BME280;68628;48.714;9.472;2023-06-04T01:31:05;98057.72;;;13.59;60.18
79198;BME280;68628;48.714;9.472;2023-06-04T01:33:34;98059.75;;;13.57;60.38
79198;BME280;68628;48.714;9.472;2023-06-04T01:36:00;98063.44;;;13.56;59.70
79198;BME280;68628;48.714;9.472;2023-06-04T01:38:27;98062.00;;;13.54;60.58
79198;BME280;68628;48.714;9.472;2023-06-04T01:40:52;98060.94;;;13.48;59.87
79198;BME280;68628;48.714;9.472;2023-06-04T01:43:22;98061.97;;;13.47;60.23
79198;BME280;68628;48.714;9.472;2023-06-04T01:45:48;98060.28;;;13.39;60.53
79198;BME280;68628;48.714;9.472;2023-06-04T01:48:14;98060.03;;;13.34;60.50
79198;BME280;68628;48.714;9.472;2023-06-04T01:50:40;98060.81;;;13.28;60.52
79198;BME280;68628;48.714;9.472;2023-06-04T01:53:06;98063.81;;;13.18;61.12
79198;BME280;68628;48.714;9.472;2023-06-04T01:55:31;98065.63;;;13.17;60.30
79198;BME280;68628;48.714;9.472;2023-06-04T01:57:59;98060.72;;;13.08;60.52
79198;BME280;68628;48.714;9.472;2023-06-04T02:00:26;98064.13;;;13.02;60.27
79198;BME280;68628;48.714;9.472;2023-06-04T02:02:52;98064.72;;;12.97;62.73
79198;BME280;68628;48.714;9.472;2023-06-04T02:05:18;98064.72;;;12.97;62.67
79198;BME280;68628;48.714;9.472;2023-06-04T02:07:46;98058.19;;;12.93;63.40
79198;BME280;68628;48.714;9.472;2023-06-04T02:10:15;98058.91;;;12.80;64.36
79198;BME280;68628;48.714;9.472;2023-06-04T02:13:00;98059.16;;;12.85;64.27
79198;BME280;68628;48.714;9.472;2023-06-04T02:15:32;98050.78;;;12.81;63.56
79198;BME280;68628;48.714;9.472;2023-06-04T02:18:10;98055.63;;;12.78;63.90
79198;BME280;68628;48.714;9.472;2023-06-04T02:20:49;98049.50;;;12.71;65.11
79198;BME280;68628;48.714;9.472;2023-06-04T02:23:17;98052.91;;;12.64;65.17
79198;BME280;68628;48.714;9.472;2023-06-04T02:25:44;98053.53;;;12.66;64.70
79198;BME280;68628;48.714;9.472;2023-06-04T02:28:11;98064.25;;;12.58;66.07
79198;BME280;68628;48.714;9.472;2023-06-04T02:30:36;98058.91;;;12.52;66.02
79198;BME280;68628;48.714;9.472;2023-06-04T02:33:02;98061.72;;;12.50;66.42
79198;BME280;68628;48.714;9.472;2023-06-04T02:35:30;98064.50;;;12.42;66.76
79198;BME280;68628;48.714;9.472;2023-06-04T02:37:57;98062.81;;;12.34;66.99
79198;BME280;68628;48.714;9.472;2023-06-04T02:40:24;98059.50;;;12.25;66.96
79198;BME280;68628;48.714;9.472;2023-06-04T02:42:52;98072.72;;;12.25;66.12
79198;BME280;68628;48.714;9.472;2023-06-04T02:45:18;98066.41;;;12.26;65.88
79198;BME280;68628;48.714;9.472;2023-06-04T02:47:44;98067.63;;;12.24;65.39
79198;BME280;68628;48.714;9.472;2023-06-04T02:50:11;98071.00;;;12.18;66.00
79198;BME280;68628;48.714;9.472;2023-06-04T02:52:37;98068.31;;;12.11;66.09
79198;BME280;68628;48.714;9.472;2023-06-04T02:55:04;98067.47;;;12.10;66.39
79198;BME280;68628;48.714;9.472;2023-06-04T02:57:32;98070.03;;;12.04;67.59
79198;BME280;68628;48.714;9.472;2023-06-04T02:59:59;98073.16;;;11.92;67.81
79198;BME280;68628;48.714;9.472;2023-06-04T03:02:25;98074.34;;;11.90;67.46
79198;BME280;68628;48.714;9.472;2023-06-04T03:04:51;98071.53;;;11.91;67.10
79198;BME280;68628;48.714;9.472;2023-06-04T03:07:17;98076.00;;;11.91;67.36
79198;BME280;68628;48.714;9.472;2023-06-04T03:09:48;98077.75;;;11.83;67.05
79198;BME280;68628;48.714;9.472;2023-06-04T03:12:15;98081.63;;;11.88;67.30
79198;BME280;68628;48.714;9.472;2023-06-04T03:14:41;98082.41;;;11.81;66.44
79198;BME280;68628;48.714;9.472;2023-06-04T03:17:06;98077.94;;;11.82;66.60
79198;BME280;68628;48.714;9.472;2023-06-04T03:19:39;98078.72;;;11.82;66.15
79198;BME280;68628;48.714;9.472;2023-06-04T03:22:08;98082.22;;;11.83;66.66
79198;BME280;68628;48.714;9.472;2023-06-04T03:24:36;98092.31;;;11.79;67.85
79198;BME280;68628;48.714;9.472;2023-06-04T03:27:04;98095.59;;;11.81;68.07
79198;BME280;68628;48.714;9.472;2023-06-04T03:29:35;98086.78;;;11.74;67.59
79198;BME280;68628;48.714;9.472;2023-06-04T03:32:01;98098.31;;;11.73;68.50
79198;BME280;68628;48.714;9.472;2023-06-04T03:34:29;98097.72;;;11.71;68.87
79198;BME280;68628;48.714;9.472;2023-06-04T03:36:58;98096.72;;;11.72;68.79
79198;BME280;68628;48.714;9.472;2023-06-04T03:39:25;98099.69;;;11.69;68.64
79198;BME280;68628;48.714;9.472;2023-06-04T03:41:50;98106.09;;;11.75;66.38
79198;BME280;68628;48.714;9.472;2023-06-04T03:44:16;98105.06;;;11.76;65.78
79198;BME280;68628;48.714;9.472;2023-06-04T03:46:44;98098.66;;;11.85;64.78
79198;BME280;68628;48.714;9.472;2023-06-04T03:49:11;98109.69;;;11.89;65.22
79198;BME280;68628;48.714;9.472;2023-06-04T03:51:38;98105.50;;;11.79;65.12
79198;BME280;68628;48.714;9.472;2023-06-04T03:54:04;98108.34;;;11.78;66.72
79198;BME280;68628;48.714;9.472;2023-06-04T03:56:30;98108.78;;;11.96;66.52
79198;BME280;68628;48.714;9.472;2023-06-04T03:58:56;98108.06;;;12.03;64.84
79198;BME280;68628;48.714;9.472;2023-06-04T04:01:21;98108.28;;;12.08;64.44
79198;BME280;68628;48.714;9.472;2023-06-04T04:03:49;98106.72;;;12.13;62.65
79198;BME280;68628;48.714;9.472;2023-06-04T04:06:16;98104.56;;;12.02;64.13
79198;BME280;68628;48.714;9.472;2023-06-04T04:08:43;98115.47;;;12.14;65.74
79198;BME280;68628;48.714;9.472;2023-06-04T04:11:13;98112.06;;;11.83;68.07
79198;BME280;68628;48.714;9.472;2023-06-04T04:13:44;98111.44;;;11.96;66.84
79198;BME280;68628;48.714;9.472;2023-06-04T04:16:10;98113.78;;;11.91;67.19
79198;BME280;68628;48.714;9.472;2023-06-04T04:18:36;98113.81;;;12.13;67.55
79198;BME280;68628;48.714;9.472;2023-06-04T04:21:03;98111.50;;;12.25;67.24
79198;BME280;68628;48.714;9.472;2023-06-04T04:23:30;98105.34;;;12.39;67.20
79198;BME280;68628;48.714;9.472;2023-06-04T04:25:58;98108.25;;;12.44;66.58
79198;BME280;68628;48.714;9.472;2023-06-04T04:28:25;98108.25;;;12.44;67.80
79198;BME280;68628;48.714;9.472;2023-06-04T04:30:54;98120.19;;;12.40;66.69
79198;BME280;68628;48.714;9.472;2023-06-04T04:33:22;98117.63;;;12.47;67.29
79198;BME280;68628;48.714;9.472;2023-06-04T04:35:50;98119.50;;;12.53;66.75
79198;BME280;68628;48.714;9.472;2023-06-04T04:38:16;98126.66;;;12.59;66.26
79198;BME280;68628;48.714;9.472;2023-06-04T04:40:45;98125.16;;;12.72;66.04
79198;BME280;68628;48.714;9.472;2023-06-04T04:43:13;98134.03;;;12.64;65.42
79198;BME280;68628;48.714;9.472;2023-06-04T04:45:39;98121.31;;;12.74;65.53
79198;BME280;68628;48.714;9.472;2023-06-04T04:48:04;98128.09;;;12.83;64.69
79198;BME280;68628;48.714;9.472;2023-06-04T04:50:30;98127.91;;;12.85;64.01
79198;BME280;68628;48.714;9.472;2023-06-04T04:52:58;98133.03;;;12.93;63.87
79198;BME280;68628;48.714;9.472;2023-06-04T04:55:24;98126.69;;;12.88;64.32
79198;BME280;68628;48.714;9.472;2023-06-04T04:57:49;98129.53;;;12.86;63.93
79198;BME280;68628;48.714;9.472;2023-06-04T05:00:15;98134.25;;;12.91;63.25
79198;BME280;68628;48.714;9.472;2023-06-04T05:02:42;98138.72;;;12.90;62.52
79198;BME280;68628;48.714;9.472;2023-06-04T05:05:08;98137.38;;;13.01;63.06
79198;BME280;68628;48.714;9.472;2023-06-04T05:07:36;98151.09;;;13.11;63.07
79198;BME280;68628;48.714;9.472;2023-06-04T05:10:01;98139.53;;;13.19;63.15
79198;BME280;68628;48.714;9.472;2023-06-04T05:12:29;98143.88;;;12.98;62.10
79198;BME280;68628;48.714;9.472;2023-06-04T05:14:56;98142.22;;;13.26;62.52
79198;BME280;68628;48.714;9.472;2023-06-04T05:17:22;98144.63;;;13.21;62.22
79198;BME280;68628;48.714;9.472;2023-06-04T05:19:56;98142.72;;;13.36;62.89
79198;BME280;68628;48.714;9.472;2023-06-04T05:22:37;98150.75;;;13.21;62.27
79198;BME280;68628;48.714;9.472;2023-06-04T05:25:03;98154.19;;;13.50;62.01
79198;BME280;68628;48.714;9.472;2023-06-04T05:27:31;98158.81;;;13.76;60.15
79198;BME280;68628;48.714;9.472;2023-06-04T05:29:57;98156.75;;;13.72;60.90
79198;BME280;68628;48.714;9.472;2023-06-04T05:32:24;98159.72;;;13.55;60.56
79198;BME280;68628;48.714;9.472;2023-06-04T05:34:54;98163.13;;;13.84;61.57
79198;BME280;68628;48.714;9.472;2023-06-04T05:37:26;98163.38;;;13.89;60.27
79198;BME280;68628;48.714;9.472;2023-06-04T05:39:53;98162.00;;;14.07;60.39
79198;BME280;68628;48.714;9.472;2023-06-04T05:42:19;98160.88;;;14.43;57.47
79198;BME280;68628;48.714;9.472;2023-06-04T05:44:45;98162.69;;;14.36;59.35
79198;BME280;68628;48.714;9.472;2023-06-04T05:47:10;98162.94;;;14.54;57.91
79198;BME280;68628;48.714;9.472;2023-06-04T05:49:36;98163.53;;;14.63;57.75
79198;BME280;68628;48.714;9.472;2023-06-04T05:52:02;98161.94;;;14.62;59.38
79198;BME280;68628;48.714;9.472;2023-06-04T05:54:29;98168.09;;;14.89;59.07
79198;BME280;68628;48.714;9.472;2023-06-04T05:56:55;98166.06;;;14.98;57.98
79198;BME280;68628;48.714;9.472;2023-06-04T05:59:21;98160.47;;;15.53;52.73
79198;BME280;68628;48.714;9.472;2023-06-04T06:01:47;98165.94;;;15.72;51.44
79198;BME280;68628;48.714;9.472;2023-06-04T06:04:13;98177.31;;;15.92;52.88
79198;BME280;68628;48.714;9.472;2023-06-04T06:06:39;98171.53;;;16.09;47.57
79198;BME280;68628;48.714;9.472;2023-06-04T06:09:09;98172.84;;;16.31;49.53
79198;BME280;68628;48.714;9.472;2023-06-04T06:11:36;98175.84;;;16.48;47.69
79198;BME280;68628;48.714;9.472;2023-06-04T06:14:02;98177.22;;;16.90;46.79
79198;BME280;68628;48.714;9.472;2023-06-04T06:16:27;98174.22;;;17.05;45.42
79198;BME280;68628;48.714;9.472;2023-06-04T06:18:53;98174.88;;;17.25;44.34
79198;BME280;68628;48.714;9.472;2023-06-04T06:21:19;98176.59;;;17.57;45.18
79198;BME280;68628;48.714;9.472;2023-06-04T06:23:45;98172.75;;;17.71;43.92
79198;BME280;68628;48.714;9.472;2023-06-04T06:26:11;98176.66;;;17.69;43.70
79198;BME280;68628;48.714;9.472;2023-06-04T06:28:37;98169.03;;;17.72;44.34
79198;BME280;68628;48.714;9.472;2023-06-04T06:31:03;98177.03;;;17.91;42.98
79198;BME280;68628;48.714;9.472;2023-06-04T06:33:28;98178.69;;;18.10;43.16
79198;BME280;68628;48.714;9.472;2023-06-04T06:35:54;98178.69;;;18.41;42.90
79198;BME280;68628;48.714;9.472;2023-06-04T06:38:20;98184.56;;;18.61;43.26
79198;BME280;68628;48.714;9.472;2023-06-04T06:40:45;98179.81;;;18.75;41.72
79198;BME280;68628;48.714;9.472;2023-06-04T06:43:11;98192.03;;;18.83;42.49
79198;BME280;68628;48.714;9.472;2023-06-04T06:45:37;98187.81;;;19.06;41.12
79198;BME280;68628;48.714;9.472;2023-06-04T06:48:03;98186.06;;;19.35;41.52
79198;BME280;68628;48.714;9.472;2023-06-04T06:50:29;98195.03;;;19.17;40.91
79198;BME280;68628;48.714;9.472;2023-06-04T06:52:55;98188.28;;;19.50;40.49
79198;BME280;68628;48.714;9.472;2023-06-04T06:55:20;98193.72;;;19.55;41.67
79198;BME280;68628;48.714;9.472;2023-06-04T06:57:46;98190.59;;;19.82;39.76
79198;BME280;68628;48.714;9.472;2023-06-04T07:00:12;98197.22;;;19.56;39.94
79198;BME280;68628;48.714;9.472;2023-06-04T07:02:38;98188.59;;;19.89;40.72
79198;BME280;68628;48.714;9.472;2023-06-04T07:05:04;98188.00;;;20.28;39.00
79198;BME280;68628;48.714;9.472;2023-06-04T07:07:29;98188.78;;;20.40;38.33
79198;BME280;68628;48.714;9.472;2023-06-04T07:09:55;98189.78;;;20.51;39.46
79198;BME280;68628;48.714;9.472;2023-06-04T07:12:21;98191.59;;;20.34;38.33
79198;BME280;68628;48.714;9.472;2023-06-04T07:14:47;98189.13;;;20.61;38.95
79198;BME280;68628;48.714;9.472;2023-06-04T07:17:12;98187.25;;;20.73;38.94
79198;BME280;68628;48.714;9.472;2023-06-04T07:19:38;98190.84;;;21.30;38.71
79198;BME280;68628;48.714;9.472;2023-06-04T07:22:03;98189.31;;;22.18;36.69
79198;BME280;68628;48.714;9.472;2023-06-04T07:24:29;98188.28;;;22.24;36.25
79198;BME280;68628;48.714;9.472;2023-06-04T07:26:55;98191.16;;;22.17;35.55
79198;BME280;68628;48.714;9.472;2023-06-04T07:29:21;98190.94;;;21.74;36.43
79198;BME280;68628;48.714;9.472;2023-06-04T07:31:47;98194.81;;;21.27;36.67
79198;BME280;68628;48.714;9.472;2023-06-04T07:34:12;98193.56;;;22.13;37.15
79198;BME280;68628;48.714;9.472;2023-06-04T07:36:38;98200.66;;;22.03;36.05
79198;BME280;68628;48.714;9.472;2023-06-04T07:39:04;98192.72;;;22.13;36.64
79198;BME280;68628;48.714;9.472;2023-06-04T07:41:32;98192.84;;;22.23;37.08
79198;BME280;68628;48.714;9.472;2023-06-04T07:43:57;98187.28;;;22.30;35.66
79198;BME280;68628;48.714;9.472;2023-06-04T07:46:23;98188.03;;;22.75;36.25
79198;BME280;68628;48.714;9.472;2023-06-04T07:48:49;98188.28;;;22.46;35.95
79198;BME280;68628;48.714;9.472;2023-06-04T07:51:14;98178.53;;;22.94;34.14
79198;BME280;68628;48.714;9.472;2023-06-04T07:53:41;98182.31;;;22.39;36.44
79198;BME280;68628;48.714;9.472;2023-06-04T07:56:07;98174.47;;;22.92;35.34
79198;BME280;68628;48.714;9.472;2023-06-04T07:58:33;98180.03;;;23.55;34.16
79198;BME280;68628;48.714;9.472;2023-06-04T08:00:59;98179.59;;;23.74;34.32
79198;BME280;68628;48.714;9.472;2023-06-04T08:03:24;98177.28;;;23.98;34.28
79198;BME280;68628;48.714;9.472;2023-06-04T08:05:50;98171.22;;;24.39;33.25
79198;BME280;68628;48.714;9.472;2023-06-04T08:08:16;98181.28;;;23.90;34.56
79198;BME280;68628;48.714;9.472;2023-06-04T08:10:42;98174.25;;;24.73;33.10
79198;BME280;68628;48.714;9.472;2023-06-04T08:13:07;98172.59;;;24.52;32.28
79198;BME280;68628;48.714;9.472;2023-06-04T08:15:35;98176.56;;;24.23;33.14
79198;BME280;68628;48.714;9.472;2023-06-04T08:18:01;98173.72;;;23.87;33.45
79198;BME280;68628;48.714;9.472;2023-06-04T08:20:26;98177.97;;;23.73;34.06
79198;BME280;68628;48.714;9.472;2023-06-04T08:22:52;98168.44;;;24.13;33.91
79198;BME280;68628;48.714;9.472;2023-06-04T08:25:18;98167.72;;;24.49;32.84
79198;BME280;68628;48.714;9.472;2023-06-04T08:27:43;98165.88;;;24.54;35.13
79198;BME280;68628;48.714;9.472;2023-06-04T08:30:09;98175.03;;;25.46;32.67
79198;BME280;68628;48.714;9.472;2023-06-04T08:32:35;98162.75;;;25.85;31.67
79198;BME280;68628;48.714;9.472;2023-06-04T08:35:01;98174.97;;;26.77;30.56
79198;BME280;68628;48.714;9.472;2023-06-04T08:37:26;98166.50;;;27.18;29.26
79198;BME280;68628;48.714;9.472;2023-06-04T08:39:52;98161.84;;;26.55;30.04
79198;BME280;68628;48.714;9.472;2023-06-04T08:42:34;98165.56;;;27.04;28.86
79198;BME280;68628;48.714;9.472;2023-06-04T08:45:10;98161.72;;;27.10;28.06
79198;BME280;68628;48.714;9.472;2023-06-04T08:47:50;98172.13;;;26.03;31.20
79198;BME280;68628;48.714;9.472;2023-06-04T08:50:22;98173.47;;;26.10;30.04
79198;BME280;68628;48.714;9.472;2023-06-04T08:52:53;98169.66;;;26.96;29.26
79198;BME280;68628;48.714;9.472;2023-06-04T08:55:20;98164.84;;;26.53;30.05
79198;BME280;68628;48.714;9.472;2023-06-04T08:57:49;98163.75;;;27.23;29.66
79198;BME280;68628;48.714;9.472;2023-06-04T09:00:19;98166.16;;;28.03;28.52
79198;BME280;68628;48.714;9.472;2023-06-04T09:02:46;98171.63;;;27.49;27.86
79198;BME280;68628;48.714;9.472;2023-06-04T09:05:19;98167.00;;;27.25;28.69
79198;BME280;68628;48.714;9.472;2023-06-04T09:07:53;98171.41;;;27.70;27.40
79198;BME280;68628;48.714;9.472;2023-06-04T09:10:26;98166.78;;;27.95;28.49
79198;BME280;68628;48.714;9.472;2023-06-04T09:12:57;98168.00;;;28.07;27.55
79198;BME280;68628;48.714;9.472;2023-06-04T09:15:27;98169.63;;;28.28;26.50
79198;BME280;68628;48.714;9.472;2023-06-04T09:17:53;98164.72;;;27.86;27.14
79198;BME280;68628;48.714;9.472;2023-06-04T09:20:23;98171.13;;;27.18;27.97
79198;BME280;68628;48.714;9.472;2023-06-04T09:22:49;98163.03;;;27.13;28.11
79198;BME280;68628;48.714;9.472;2023-06-04T09:25:22;98179.03;;;27.09;27.56
79198;BME280;68628;48.714;9.472;2023-06-04T09:27:51;98177.50;;;27.56;26.73
79198;BME280;68628;48.714;9.472;2023-06-04T09:30:18;98176.53;;;27.71;25.70
79198;BME280;68628;48.714;9.472;2023-06-04T09:32:44;98171.75;;;28.12;27.13
79198;BME280;68628;48.714;9.472;2023-06-04T09:35:18;98175.69;;;28.77;27.07
79198;BME280;68628;48.714;9.472;2023-06-04T09:37:55;98177.31;;;28.78;25.44
79198;BME280;68628;48.714;9.472;2023-06-04T09:40:22;98179.72;;;27.98;26.49
79198;BME280;68628;48.714;9.472;2023-06-04T09:42:49;98173.50;;;28.59;25.98
79198;BME280;68628;48.714;9.472;2023-06-04T09:45:31;98176.19;;;30.00;24.58
79198;BME280;68628;48.714;9.472;2023-06-04T09:48:02;98168.25;;;29.15;24.64
79198;BME280;68628;48.714;9.472;2023-06-04T09:50:32;98160.59;;;27.46;26.65
79198;BME280;68628;48.714;9.472;2023-06-04T09:52:59;98156.72;;;27.76;26.35
79198;BME280;68628;48.714;9.472;2023-06-04T09:55:27;98161.13;;;27.13;28.27
79198;BME280;68628;48.714;9.472;2023-06-04T09:57:53;98172.91;;;27.81;26.92
79198;BME280;68628;48.714;9.472;2023-06-04T10:00:22;98166.31;;;28.69;25.44
79198;BME280;68628;48.714;9.472;2023-06-04T10:02:53;98154.38;;;27.88;26.23
79198;BME280;68628;48.714;9.472;2023-06-04T10:05:22;98160.44;;;28.62;25.66
79198;BME280;68628;48.714;9.472;2023-06-04T10:07:51;98165.09;;;28.42;25.56
79198;BME280;68628;48.714;9.472;2023-06-04T10:10:21;98167.25;;;28.78;26.52
79198;BME280;68628;48.714;9.472;2023-06-04T10:12:55;98162.22;;;29.04;25.09
79198;BME280;68628;48.714;9.472;2023-06-04T10:15:30;98154.75;;;28.44;26.00
79198;BME280;68628;48.714;9.472;2023-06-04T10:17:59;98154.69;;;28.30;25.09
79198;BME280;68628;48.714;9.472;2023-06-04T10:20:28;98152.84;;;28.25;25.76
79198;BME280;68628;48.714;9.472;2023-06-04T10:22:54;98155.41;;;28.36;26.18
79198;BME280;68628;48.714;9.472;2023-06-04T10:25:21;98149.69;;;28.56;26.12
79198;BME280;68628;48.714;9.472;2023-06-04T10:27:47;98151.28;;;28.57;26.60
79198;BME280;68628;48.714;9.472;2023-06-04T10:30:15;98152.34;;;27.80;26.55
79198;BME280;68628;48.714;9.472;2023-06-04T10:32:41;98141.44;;;26.78;27.26
79198;BME280;68628;48.714;9.472;2023-06-04T10:35:07;98147.69;;;28.43;25.74
79198;BME280;68628;48.714;9.472;2023-06-04T10:37:34;98138.28;;;27.78;28.28
79198;BME280;68628;48.714;9.472;2023-06-04T10:40:00;98138.97;;;27.65;26.64
79198;BME280;68628;48.714;9.472;2023-06-04T10:42:26;98144.66;;;27.87;28.00
79198;BME280;68628;48.714;9.472;2023-06-04T10:45:04;98146.44;;;27.24;27.68
79198;BME280;68628;48.714;9.472;2023-06-04T10:47:30;98137.22;;;27.25;27.73
79198;BME280;68628;48.714;9.472;2023-06-04T10:50:08;98141.75;;;27.59;26.67
79198;BME280;68628;48.714;9.472;2023-06-04T10:52:35;98134.81;;;26.60;27.15
79198;BME280;68628;48.714;9.472;2023-06-04T10:55:05;98133.34;;;27.32;27.11
79198;BME280;68628;48.714;9.472;2023-06-04T10:57:32;98131.44;;;27.08;27.60
79198;BME280;68628;48.714;9.472;2023-06-04T10:59:59;98128.81;;;26.23;28.38
79198;BME280;68628;48.714;9.472;2023-06-04T11:02:27;98135.69;;;26.50;28.64
79198;BME280;68628;48.714;9.472;2023-06-04T11:05:06;98134.63;;;26.86;28.73
79198;BME280;68628;48.714;9.472;2023-06-04T11:07:44;98136.72;;;26.59;27.51
79198;BME280;68628;48.714;9.472;2023-06-04T11:10:13;98133.22;;;26.54;28.24
79198;BME280;68628;48.714;9.472;2023-06-04T11:12:48;98135.13;;;26.08;28.64
79198;BME280;68628;48.714;9.472;2023-06-04T11:15:17;98138.06;;;26.57;29.18
79198;BME280;68628;48.714;9.472;2023-06-04T11:17:52;98144.09;;;26.49;28.73
79198;BME280;68628;48.714;9.472;2023-06-04T11:20:21;98135.72;;;26.45;27.92
79198;BME280;68628;48.714;9.472;2023-06-04T11:25:22;98133.44;;;26.23;27.13
79198;BME280;68628;48.714;9.472;2023-06-04T11:27:51;98137.25;;;26.17;28.24
79198;BME280;68628;48.714;9.472;2023-06-04T11:30:19;98137.31;;;26.01;28.54
79198;BME280;68628;48.714;9.472;2023-06-04T11:32:46;98139.22;;;26.46;28.06
79198;BME280;68628;48.714;9.472;2023-06-04T11:35:12;98137.72;;;26.69;28.33
79198;BME280;68628;48.714;9.472;2023-06-04T11:37:38;98138.38;;;27.19;28.84
79198;BME280;68628;48.714;9.472;2023-06-04T11:40:16;98130.13;;;27.59;27.74
79198;BME280;68628;48.714;9.472;2023-06-04T11:42:49;98135.13;;;26.88;27.12
79198;BME280;68628;48.714;9.472;2023-06-04T11:45:17;98138.78;;;26.68;26.39
79198;BME280;68628;48.714;9.472;2023-06-04T11:47:56;98132.16;;;26.50;26.31
79198;BME280;68628;48.714;9.472;2023-06-04T11:50:26;98128.78;;;27.03;26.52
79198;BME280;68628;48.714;9.472;2023-06-04T11:52:53;98116.63;;;27.00;27.30
79198;BME280;68628;48.714;9.472;2023-06-04T11:55:20;98125.75;;;27.63;27.82
79198;BME280;68628;48.714;9.472;2023-06-04T11:57:48;98131.97;;;27.34;25.64
79198;BME280;68628;48.714;9.472;2023-06-04T12:00:17;98130.47;;;26.93;27.42
79198;BME280;68628;48.714;9.472;2023-06-04T12:02:52;98121.50;;;25.74;27.54
79198;BME280;68628;48.714;9.472;2023-06-04T12:05:21;98123.97;;;25.60;28.88
79198;BME280;68628;48.714;9.472;2023-06-04T12:07:49;98114.22;;;26.30;27.60
79198;BME280;68628;48.714;9.472;2023-06-04T12:10:18;98105.94;;;26.55;28.08
79198;BME280;68628;48.714;9.472;2023-06-04T12:12:45;98111.56;;;26.93;27.59
79198;BME280;68628;48.714;9.472;2023-06-04T12:15:11;98103.66;;;26.68;27.17
79198;BME280;68628;48.714;9.472;2023-06-04T12:17:49;98101.25;;;26.71;26.38
79198;BME280;68628;48.714;9.472;2023-06-04T12:20:39;98114.56;;;26.57;27.00
79198;BME280;68628;48.714;9.472;2023-06-04T12:23:06;98113.34;;;26.39;26.74
79198;BME280;68628;48.714;9.472;2023-06-04T12:25:33;98104.06;;;26.11;26.60
79198;BME280;68628;48.714;9.472;2023-06-04T12:28:02;98101.22;;;26.37;26.92
79198;BME280;68628;48.714;9.472;2023-06-04T12:30:39;98103.75;;;26.57;26.34
79198;BME280;68628;48.714;9.472;2023-06-04T12:33:05;98104.69;;;26.77;25.61
79198;BME280;68628;48.714;9.472;2023-06-04T12:35:33;98098.69;;;27.09;26.49
79198;BME280;68628;48.714;9.472;2023-06-04T12:37:59;98100.50;;;27.19;23.41
79198;BME280;68628;48.714;9.472;2023-06-04T12:40:25;98111.06;;;26.91;25.00
79198;BME280;68628;48.714;9.472;2023-06-04T12:42:51;98109.22;;;26.47;24.77
79198;BME280;68628;48.714;9.472;2023-06-04T12:45:17;98107.34;;;26.48;25.12
79198;BME280;68628;48.714;9.472;2023-06-04T12:47:43;98102.59;;;26.69;26.14
79198;BME280;68628;48.714;9.472;2023-06-04T12:50:09;98108.50;;;25.81;26.86
79198;BME280;68628;48.714;9.472;2023-06-04T12:52:35;98100.13;;;25.88;26.56
79198;BME280;68628;48.714;9.472;2023-06-04T12:55:01;98100.78;;;26.19;27.70
79198;BME280;68628;48.714;9.472;2023-06-04T12:57:27;98099.53;;;26.06;27.30
79198;BME280;68628;48.714;9.472;2023-06-04T12:59:53;98098.91;;;26.54;27.40
79198;BME280;68628;48.714;9.472;2023-06-04T13:02:18;98094.16;;;27.05;26.43
79198;BME280;68628;48.714;9.472;2023-06-04T13:04:44;98091.94;;;26.83;25.27
79198;BME280;68628;48.714;9.472;2023-06-04T13:07:11;98092.53;;;27.04;25.64
79198;BME280;68628;48.714;9.472;2023-06-04T13:09:37;98082.94;;;27.17;24.83